createdAt,value
2017-05-04T00:00:12.620Z,29.83
2017-05-04T00:01:22.618Z,30.02
2017-05-04T00:02:32.592Z,29.83
2017-05-04T00:03:43.426Z,29.83
2017-05-04T00:04:53.986Z,29.73
2017-05-04T00:06:03.343Z,29.63
2017-05-04T00:07:13.639Z,29.83
2017-05-04T00:08:23.611Z,29.83
2017-05-04T00:09:33.888Z,30.02
2017-05-04T00:10:44.441Z,29.83
2017-05-04T00:11:54.721Z,29.83
2017-05-04T00:13:04.695Z,29.93
2017-05-04T00:14:14.979Z,29.73
2017-05-04T00:15:24.956Z,29.44
2017-05-04T00:16:35.507Z,29.73
2017-05-04T00:17:45.482Z,29.83
2017-05-04T00:18:55.762Z,29.83
2017-05-04T00:20:05.739Z,29.93
2017-05-04T00:21:15.405Z,29.44
2017-05-04T00:22:25.628Z,29.44
2017-05-04T00:23:35.904Z,29.44
2017-05-04T00:24:46.189Z,29.63
2017-05-04T00:25:56.476Z,29.44
2017-05-04T00:27:06.438Z,29.54
2017-05-04T00:28:16.956Z,29.83
2017-05-04T00:29:27.275Z,30.02
2017-05-04T00:30:37.249Z,29.83
2017-05-04T00:31:47.517Z,29.93
2017-05-04T00:32:57.476Z,29.73
2017-05-04T00:34:07.683Z,29.83
2017-05-04T00:35:17.968Z,29.93
2017-05-04T00:36:27.946Z,29.73
2017-05-04T00:37:37.905Z,29.63
2017-05-04T00:38:48.180Z,29.54
2017-05-04T00:39:58.401Z,29.54
2017-05-04T00:41:08.689Z,29.73
2017-05-04T00:42:18.976Z,30.02
2017-05-04T00:43:29.252Z,29.93
2017-05-04T00:44:39.551Z,29.83
2017-05-04T00:45:49.454Z,29.93
2017-05-04T00:46:59.970Z,29.44
2017-05-04T00:48:09.928Z,29.93
2017-05-04T00:49:20.213Z,29.44
2017-05-04T00:50:30.501Z,29.63
2017-05-04T00:51:41.032Z,29.63
2017-05-04T00:52:51.327Z,30.02
2017-05-04T00:54:01.608Z,29.83
2017-05-04T00:55:11.571Z,30.11
2017-05-04T00:56:21.841Z,29.63
2017-05-04T00:57:32.061Z,30.02
2017-05-04T00:58:42.344Z,29.73
2017-05-04T00:59:51.994Z,29.93
2017-05-04T01:01:02.264Z,29.81
2017-05-04T01:02:12.537Z,29.81
2017-05-04T01:03:23.119Z,29.93
2017-05-04T01:04:33.425Z,29.93
2017-05-04T01:05:43.700Z,29.93
2017-05-04T01:06:54.020Z,29.63
2017-05-04T01:08:03.992Z,29.93
2017-05-04T01:09:14.864Z,29.73
2017-05-04T01:10:24.834Z,29.83
2017-05-04T01:11:35.107Z,29.93
2017-05-04T01:12:45.074Z,29.93
2017-05-04T01:13:55.598Z,29.83
2017-05-04T01:15:05.814Z,29.93
2017-05-04T01:16:16.099Z,29.63
2017-05-04T01:17:26.383Z,29.93
2017-05-04T01:18:36.660Z,29.73
2017-05-04T01:19:46.937Z,29.83
2017-05-04T01:20:57.470Z,29.83
2017-05-04T01:22:07.757Z,30.02
2017-05-04T01:23:18.041Z,30.02
2017-05-04T01:24:28.006Z,29.54
2017-05-04T01:25:37.661Z,29.93
2017-05-04T01:26:48.190Z,29.83
2017-05-04T01:27:58.155Z,29.83
2017-05-04T01:29:08.440Z,29.63
2017-05-04T01:30:18.409Z,29.73
2017-05-04T01:31:28.688Z,29.73
2017-05-04T01:32:38.898Z,29.83
2017-05-04T01:33:49.177Z,29.73
2017-05-04T01:34:59.468Z,29.93
2017-05-04T01:36:09.751Z,30
2017-05-04T01:37:19.729Z,29.73
2017-05-04T01:38:30.274Z,29.83
2017-05-04T01:39:40.250Z,29.83
2017-05-04T01:40:50.527Z,30.02
2017-05-04T01:42:00.490Z,29.93
2017-05-04T01:43:10.772Z,30.02
2017-05-04T01:44:21.305Z,30.11
2017-05-04T01:45:31.575Z,30
2017-05-04T01:46:41.570Z,30.02
2017-05-04T01:47:51.533Z,30.11
2017-05-04T01:49:01.819Z,30.11
2017-05-04T01:50:12.360Z,30.31
2017-05-04T01:51:22.636Z,30.11
2017-05-04T01:52:32.918Z,30.11
2017-05-04T01:53:43.207Z,30.11
2017-05-04T01:54:53.490Z,30.11
2017-05-04T01:56:04.024Z,30.02
2017-05-04T01:57:14.302Z,30
2017-05-04T01:58:23.961Z,30.02
2017-05-04T01:59:33.938Z,30.4
2017-05-04T02:00:43.910Z,30.31
2017-05-04T02:01:54.445Z,30.02
2017-05-04T02:03:04.725Z,30.02
2017-05-04T02:04:14.692Z,30.31
2017-05-04T02:05:24.665Z,30.21
2017-05-04T02:06:34.941Z,30.39
2017-05-04T02:07:45.481Z,30.11
2017-05-04T02:08:55.759Z,30.11
2017-05-04T02:10:05.742Z,30.31
2017-05-04T02:11:15.395Z,30.11
2017-05-04T02:12:25.678Z,30.02
2017-05-04T02:13:36.206Z,30.31
2017-05-04T02:14:46.490Z,30.11
2017-05-04T02:15:56.926Z,30.11
2017-05-04T02:17:07.206Z,29.93
2017-05-04T02:18:16.862Z,30.4
2017-05-04T02:19:26.761Z,30.5
2017-05-04T02:20:37.048Z,30.5
2017-05-04T02:21:47.022Z,30.5
2017-05-04T02:22:57.300Z,30.31
2017-05-04T02:24:07.592Z,30.39
2017-05-04T02:25:18.115Z,30.4
2017-05-04T02:26:28.393Z,30.39
2017-05-04T02:27:38.695Z,30.39
2017-05-04T02:28:48.979Z,30.39
2017-05-04T02:29:59.258Z,30.19
2017-05-04T02:31:09.794Z,30.39
2017-05-04T02:32:20.088Z,30.29
2017-05-04T02:33:30.054Z,30.19
2017-05-04T02:34:40.334Z,30.19
2017-05-04T02:35:50.618Z,30.5
2017-05-04T02:37:01.174Z,30.31
2017-05-04T02:38:11.469Z,30.49
2017-05-04T02:39:21.445Z,30.39
2017-05-04T02:40:31.723Z,30.5
2017-05-04T02:41:41.999Z,30.39
2017-05-04T02:42:52.215Z,30.39
2017-05-04T02:44:02.491Z,30.6
2017-05-04T02:45:12.778Z,30.58
2017-05-04T02:46:23.050Z,30.49
2017-05-04T02:47:33.330Z,30.69
2017-05-04T02:48:43.891Z,30.58
2017-05-04T02:49:54.190Z,30.69
2017-05-04T02:51:04.042Z,30.58
2017-05-04T02:52:14.004Z,30.5
2017-05-04T02:53:24.287Z,30.5
2017-05-04T02:54:34.514Z,30.6
2017-05-04T02:55:44.492Z,30.6
2017-05-04T02:56:54.770Z,30.69
2017-05-04T02:58:04.734Z,30.6
2017-05-04T02:59:15.018Z,30.68
2017-05-04T03:00:25.543Z,30.77
2017-05-04T03:01:35.822Z,30.68
2017-05-04T03:02:45.802Z,30.58
2017-05-04T03:03:56.079Z,30.77
2017-05-04T03:05:06.365Z,30.68
2017-05-04T03:06:16.965Z,30.69
2017-05-04T03:07:27.245Z,30.98
2017-05-04T03:08:37.520Z,30.79
2017-05-04T03:09:47.490Z,30.6
2017-05-04T03:10:57.460Z,30.69
2017-05-04T03:12:07.996Z,30.87
2017-05-04T03:13:18.276Z,30.68
2017-05-04T03:14:28.248Z,30.58
2017-05-04T03:15:38.527Z,30.77
2017-05-04T03:16:48.518Z,30.87
2017-05-04T03:17:58.419Z,30.79
2017-05-04T03:19:08.709Z,30.97
2017-05-04T03:20:18.684Z,30.87
2017-05-04T03:21:28.964Z,30.98
2017-05-04T03:22:39.255Z,31.08
2017-05-04T03:23:49.797Z,31.06
2017-05-04T03:24:59.764Z,31.08
2017-05-04T03:26:09.760Z,31.06
2017-05-04T03:27:20.041Z,31.16
2017-05-04T03:28:30.313Z,31.06
2017-05-04T03:29:40.846Z,31.08
2017-05-04T03:30:50.809Z,31.18
2017-05-04T03:32:00.788Z,31.26
2017-05-04T03:33:10.764Z,31.26
2017-05-04T03:34:21.054Z,31.16
2017-05-04T03:35:31.577Z,31.06
2017-05-04T03:36:41.844Z,31.35
2017-05-04T03:37:51.825Z,31.35
2017-05-04T03:39:01.794Z,31.35
2017-05-04T03:40:11.759Z,31.35
2017-05-04T03:41:22.301Z,31.35
2017-05-04T03:42:31.962Z,31.35
2017-05-04T03:43:41.922Z,31.35
2017-05-04T03:44:52.200Z,31.45
2017-05-04T03:46:02.160Z,31.46
2017-05-04T03:47:12.692Z,31.35
2017-05-04T03:48:22.964Z,31.45
2017-05-04T03:49:32.933Z,31.35
2017-05-04T03:50:42.899Z,31.45
2017-05-04T03:51:53.171Z,31.45
2017-05-04T03:53:03.750Z,31.46
2017-05-04T03:54:14.037Z,31.54
2017-05-04T03:55:24.058Z,31.54
2017-05-04T03:56:34.329Z,31.45
2017-05-04T03:57:44.605Z,31.45
2017-05-04T03:58:54.826Z,31.45
2017-05-04T04:00:04.793Z,31.64
2017-05-04T04:01:15.068Z,31.64
2017-05-04T04:02:25.353Z,31.64
2017-05-04T04:03:35.625Z,31.54
2017-05-04T04:04:46.157Z,31.45
2017-05-04T04:05:56.435Z,31.45
2017-05-04T04:07:06.731Z,31.35
2017-05-04T04:08:17.006Z,31.35
2017-05-04T04:09:27.282Z,31.54
2017-05-04T04:10:37.547Z,31.35
2017-05-04T04:11:47.200Z,31.26
2017-05-04T04:12:57.484Z,31.35
2017-05-04T04:14:07.757Z,31.27
2017-05-04T04:15:18.035Z,31.35
2017-05-04T04:16:28.255Z,31.35
2017-05-04T04:17:38.541Z,31.45
2017-05-04T04:18:48.824Z,31.35
2017-05-04T04:19:58.825Z,31.08
2017-05-04T04:21:08.799Z,31.18
2017-05-04T04:22:19.328Z,31.18
2017-05-04T04:23:29.297Z,31.37
2017-05-04T04:24:39.582Z,31.08
2017-05-04T04:25:49.550Z,31.18
2017-05-04T04:26:59.834Z,31.27
2017-05-04T04:28:10.364Z,31.18
2017-05-04T04:29:20.337Z,31.27
2017-05-04T04:30:30.616Z,31.18
2017-05-04T04:31:40.588Z,31.18
2017-05-04T04:32:50.556Z,31.18
2017-05-04T04:34:00.769Z,31.08
2017-05-04T04:35:11.061Z,31.18
2017-05-04T04:36:21.051Z,31.27
2017-05-04T04:37:31.341Z,31.37
2017-05-04T04:38:41.655Z,31.26
2017-05-04T04:39:52.204Z,31.37
2017-05-04T04:41:02.612Z,31.46
2017-05-04T04:42:12.607Z,31.37
2017-05-04T04:43:22.894Z,31.54
2017-05-04T04:44:32.872Z,31.26
2017-05-04T04:45:43.098Z,31.35
2017-05-04T04:46:53.365Z,31.26
2017-05-04T04:48:03.652Z,31.35
2017-05-04T04:49:13.609Z,31.45
2017-05-04T04:50:23.580Z,31.54
2017-05-04T04:51:34.102Z,31.56
2017-05-04T04:52:44.068Z,31.64
2017-05-04T04:53:54.340Z,31.37
2017-05-04T04:55:04.616Z,31.54
2017-05-04T04:56:14.897Z,31.46
2017-05-04T04:57:25.423Z,31.54
2017-05-04T04:58:35.701Z,31.35
2017-05-04T04:59:45.979Z,31.45
2017-05-04T05:00:56.272Z,31.54
2017-05-04T05:02:06.560Z,31.46
2017-05-04T05:03:17.081Z,31.45
2017-05-04T05:04:27.365Z,31.54
2017-05-04T05:05:37.338Z,31.54
2017-05-04T05:06:47.630Z,31.64
2017-05-04T05:07:57.898Z,31.54
2017-05-04T05:09:08.411Z,31.54
2017-05-04T05:10:18.691Z,31.45
2017-05-04T05:11:28.991Z,31.64
2017-05-04T05:12:38.645Z,31.45
2017-05-04T05:13:48.615Z,31.45
2017-05-04T05:14:59.151Z,31.54
2017-05-04T05:16:09.437Z,31.45
2017-05-04T05:17:19.713Z,31.54
2017-05-04T05:18:29.685Z,31.35
2017-05-04T05:19:39.970Z,31.54
2017-05-04T05:20:50.200Z,31.35
2017-05-04T05:22:00.479Z,31.54
2017-05-04T05:23:10.447Z,31.45
2017-05-04T05:24:20.732Z,31.54
2017-05-04T05:25:31.003Z,31.45
2017-05-04T05:26:41.221Z,31.45
2017-05-04T05:27:51.504Z,31.35
2017-05-04T05:29:01.478Z,31.26
2017-05-04T05:30:11.449Z,31.45
2017-05-04T05:31:21.734Z,31.35
2017-05-04T05:32:32.326Z,31.35
2017-05-04T05:33:41.997Z,31.45
2017-05-04T05:34:51.972Z,31.35
2017-05-04T05:36:02.247Z,31.54
2017-05-04T05:37:12.526Z,31.45
2017-05-04T05:38:23.290Z,31.35
2017-05-04T05:39:33.568Z,31.35
2017-05-04T05:40:43.534Z,31.26
2017-05-04T05:41:53.505Z,31.35
2017-05-04T05:43:03.783Z,31.35
2017-05-04T05:44:14.314Z,31.35
2017-05-04T05:45:24.603Z,31.35
2017-05-04T05:46:34.890Z,31.37
2017-05-04T05:47:45.180Z,31.35
2017-05-04T05:48:55.463Z,31.35
2017-05-04T05:50:05.998Z,31.35
2017-05-04T05:51:16.381Z,31.45
2017-05-04T05:52:26.671Z,31.26
2017-05-04T05:53:36.637Z,31.26
2017-05-04T05:54:46.316Z,31.35
2017-05-04T05:55:56.540Z,31.35
2017-05-04T05:57:06.821Z,31.35
2017-05-04T05:58:17.119Z,31.35
2017-05-04T05:59:27.090Z,31.35
2017-05-04T06:00:37.378Z,31.35
2017-05-04T06:01:47.988Z,31.35
2017-05-04T06:02:58.310Z,31.35
2017-05-04T06:04:08.621Z,31.26
2017-05-04T06:05:18.634Z,31.35
2017-05-04T06:06:28.612Z,31.45
2017-05-04T06:07:39.159Z,31.54
2017-05-04T06:08:49.442Z,31.54
2017-05-04T06:09:59.424Z,31.56
2017-05-04T06:11:09.435Z,31.54
2017-05-04T06:12:19.414Z,31.64
2017-05-04T06:13:29.981Z,31.54
2017-05-04T06:14:40.294Z,31.54
2017-05-04T06:15:50.589Z,31.54
2017-05-04T06:17:00.567Z,31.65
2017-05-04T06:18:10.870Z,31.64
2017-05-04T06:19:21.086Z,31.64
2017-05-04T06:20:31.084Z,31.74
2017-05-04T06:21:40.765Z,31.83
2017-05-04T06:22:50.736Z,31.83
2017-05-04T06:24:01.053Z,31.74
2017-05-04T06:25:11.648Z,31.83
2017-05-04T06:26:21.954Z,31.83
2017-05-04T06:27:32.184Z,31.93
2017-05-04T06:28:42.501Z,31.83
2017-05-04T06:29:52.823Z,31.83
2017-05-04T06:31:03.419Z,32.03
2017-05-04T06:32:13.747Z,32.03
2017-05-04T06:33:24.262Z,32.12
2017-05-04T06:34:34.254Z,32.03
2017-05-04T06:35:43.912Z,32.21
2017-05-04T06:36:54.446Z,32.12
2017-05-04T06:38:04.730Z,32.14
2017-05-04T06:39:14.702Z,32.12
2017-05-04T06:40:24.692Z,32.41
2017-05-04T06:41:34.996Z,32.41
2017-05-04T06:42:45.229Z,32.31
2017-05-04T06:43:55.525Z,32.51
2017-05-04T06:45:05.213Z,32.51
2017-05-04T06:46:15.186Z,32.41
2017-05-04T06:47:25.470Z,32.41
2017-05-04T06:48:36.007Z,32.41
2017-05-04T06:49:46.290Z,32.51
2017-05-04T06:50:56.591Z,32.41
2017-05-04T06:52:06.878Z,32.7
2017-05-04T06:53:17.203Z,32.79
2017-05-04T06:54:27.752Z,32.98
2017-05-04T06:55:37.728Z,32.89
2017-05-04T06:56:48.017Z,32.98
2017-05-04T06:57:58.005Z,33.08
2017-05-04T06:59:07.984Z,33.18
2017-05-04T07:00:17.897Z,32.98
2017-05-04T07:01:27.620Z,33.08
2017-05-04T07:02:37.616Z,33.2
2017-05-04T07:03:47.837Z,33.29
2017-05-04T07:04:57.856Z,33.1
2017-05-04T07:06:08.461Z,33.18
2017-05-04T07:07:18.752Z,33.1
2017-05-04T07:08:29.044Z,33.48
2017-05-04T07:09:39.359Z,33.08
2017-05-04T07:10:49.358Z,33.48
2017-05-04T07:11:59.972Z,33.37
2017-05-04T07:13:10.257Z,33.18
2017-05-04T07:14:20.555Z,33.48
2017-05-04T07:15:30.536Z,33.08
2017-05-04T07:16:40.837Z,33.08
2017-05-04T07:17:51.417Z,33.18
2017-05-04T07:19:02.004Z,33.47
2017-05-04T07:20:12.012Z,33.85
2017-05-04T07:21:22.003Z,33.85
2017-05-04T07:22:32.337Z,34.14
2017-05-04T07:23:42.598Z,34.05
2017-05-04T07:24:52.887Z,34.43
2017-05-04T07:26:02.234Z,34.14
2017-05-04T07:27:12.520Z,34.43
2017-05-04T07:28:22.801Z,34.53
2017-05-04T07:29:33.341Z,34.72
2017-05-04T07:30:43.620Z,35.2
2017-05-04T07:31:53.911Z,35.22
2017-05-04T07:33:04.217Z,35.3
2017-05-04T07:34:14.500Z,35.41
2017-05-04T07:35:24.711Z,35.31
2017-05-04T07:36:35.004Z,35.58
2017-05-04T07:37:44.987Z,35.6
2017-05-04T07:38:55.268Z,35.89
2017-05-04T07:40:05.243Z,35.97
2017-05-04T07:41:15.785Z,35.87
2017-05-04T07:42:26.081Z,36.18
2017-05-04T07:43:36.369Z,36.16
2017-05-04T07:44:46.356Z,36.16
2017-05-04T07:45:56.317Z,35.97
2017-05-04T07:47:06.912Z,35.89
2017-05-04T07:48:17.227Z,36.08
2017-05-04T07:49:27.527Z,36.08
2017-05-04T07:50:37.812Z,36.18
2017-05-04T07:51:48.106Z,36.08
2017-05-04T07:52:58.661Z,36.27
2017-05-04T07:54:08.951Z,36.07
2017-05-04T07:55:19.242Z,35.99
2017-05-04T07:56:29.532Z,35.89
2017-05-04T07:57:39.826Z,36.18
2017-05-04T07:58:50.081Z,36.08
2017-05-04T08:00:00.398Z,36.27
2017-05-04T08:01:10.573Z,36.18
2017-05-04T08:02:20.569Z,35.89
2017-05-04T08:03:30.558Z,36.18
2017-05-04T08:04:41.150Z,35.99
2017-05-04T08:05:51.453Z,35.89
2017-05-04T08:07:01.745Z,35.79
2017-05-04T08:08:11.434Z,35.99
2017-05-04T08:09:21.422Z,35.99
2017-05-04T08:10:31.976Z,35.89
2017-05-04T08:11:42.266Z,35.5
2017-05-04T08:12:52.241Z,35.79
2017-05-04T08:14:02.571Z,35.89
2017-05-04T08:15:12.858Z,35.89
2017-05-04T08:16:23.407Z,35.79
2017-05-04T08:17:33.698Z,35.79
2017-05-04T08:18:44.248Z,35.7
2017-05-04T08:19:54.551Z,35.79
2017-05-04T08:21:04.840Z,35.5
2017-05-04T08:22:15.113Z,35.79
2017-05-04T08:23:25.096Z,35.7
2017-05-04T08:24:35.083Z,35.99
2017-05-04T08:25:45.062Z,35.7
2017-05-04T08:26:55.033Z,35.89
2017-05-04T08:28:05.266Z,35.99
2017-05-04T08:29:15.562Z,36.08
2017-05-04T08:30:25.864Z,36.08
2017-05-04T08:31:35.854Z,35.99
2017-05-04T08:32:45.844Z,36.08
2017-05-04T08:33:56.072Z,36.08
2017-05-04T08:35:06.044Z,35.89
2017-05-04T08:36:16.391Z,35.89
2017-05-04T08:37:26.674Z,35.7
2017-05-04T08:38:36.667Z,35.7
2017-05-04T08:39:47.219Z,35.99
2017-05-04T08:40:57.513Z,35.7
2017-05-04T08:42:07.799Z,35.79
2017-05-04T08:43:18.088Z,35.7
2017-05-04T08:44:28.380Z,35.79
2017-05-04T08:45:38.968Z,35.79
2017-05-04T08:46:49.327Z,35.89
2017-05-04T08:47:59.642Z,35.6
2017-05-04T08:49:09.937Z,35.89
2017-05-04T08:50:20.240Z,35.89
2017-05-04T08:51:30.841Z,35.79
2017-05-04T08:52:41.173Z,35.7
2017-05-04T08:53:51.466Z,35.7
2017-05-04T08:55:01.778Z,35.7
2017-05-04T08:56:11.757Z,35.7
2017-05-04T08:57:22.309Z,35.5
2017-05-04T08:58:32.290Z,35.6
2017-05-04T08:59:42.286Z,35.7
2017-05-04T09:00:52.588Z,35.99
2017-05-04T09:02:02.873Z,36.27
2017-05-04T09:03:13.411Z,36.27
2017-05-04T09:04:23.718Z,35.89
2017-05-04T09:05:33.697Z,35.79
2017-05-04T09:06:43.982Z,35.99
2017-05-04T09:07:54.275Z,35.5
2017-05-04T09:09:04.870Z,35.7
2017-05-04T09:10:14.837Z,35.89
2017-05-04T09:11:24.807Z,35.5
2017-05-04T09:12:34.781Z,35.71
2017-05-04T09:13:45.241Z,35.5
2017-05-04T09:14:55.808Z,35.41
2017-05-04T09:16:05.780Z,35.6
2017-05-04T09:17:16.063Z,35.79
2017-05-04T09:18:26.337Z,35.99
2017-05-04T09:19:36.625Z,35.89
2017-05-04T09:20:47.205Z,35.99
2017-05-04T09:21:57.184Z,35.89
2017-05-04T09:23:07.470Z,35.89
2017-05-04T09:24:17.763Z,36.08
2017-05-04T09:25:28.041Z,35.89
2017-05-04T09:26:38.299Z,35.6
2017-05-04T09:27:48.590Z,35.99
2017-05-04T09:28:58.915Z,35.89
2017-05-04T09:30:08.906Z,35.5
2017-05-04T09:31:19.221Z,35.41
2017-05-04T09:32:29.446Z,35.79
2017-05-04T09:33:39.745Z,35.7
2017-05-04T09:34:50.063Z,35.6
2017-05-04T09:36:00.030Z,35.6
2017-05-04T09:37:10.337Z,35.7
2017-05-04T09:38:20.884Z,35.6
2017-05-04T09:39:31.201Z,35.41
2017-05-04T09:40:41.483Z,35.6
2017-05-04T09:41:51.812Z,35.41
2017-05-04T09:43:02.110Z,35.31
2017-05-04T09:44:12.395Z,35.31
2017-05-04T09:45:22.109Z,35.22
2017-05-04T09:46:32.426Z,35.22
2017-05-04T09:47:42.728Z,35.31
2017-05-04T09:48:52.702Z,35.22
2017-05-04T09:50:03.270Z,35.31
2017-05-04T09:51:13.551Z,35.31
2017-05-04T09:52:23.850Z,35.24
2017-05-04T09:53:34.134Z,35.22
2017-05-04T09:54:44.120Z,35.12
2017-05-04T09:55:54.686Z,35.22
2017-05-04T09:57:04.971Z,35.12
2017-05-04T09:58:15.253Z,35.22
2017-05-04T09:59:25.556Z,35.31
2017-05-04T10:00:35.871Z,35.31
2017-05-04T10:01:46.097Z,35.31
2017-05-04T10:02:56.073Z,35.22
2017-05-04T10:04:06.353Z,35.41
2017-05-04T10:05:16.328Z,35.5
2017-05-04T10:06:26.618Z,35.6
2017-05-04T10:07:36.842Z,35.7
2017-05-04T10:08:46.823Z,35.99
2017-05-04T10:09:56.506Z,35.7
2017-05-04T10:11:06.804Z,35.6
2017-05-04T10:12:17.083Z,36
2017-05-04T10:13:27.630Z,35.91
2017-05-04T10:14:37.605Z,36.19
2017-05-04T10:15:47.891Z,35.91
2017-05-04T10:16:58.169Z,35.71
2017-05-04T10:18:08.476Z,36.08
2017-05-04T10:19:18.718Z,36.18
2017-05-04T10:20:29.017Z,36.39
2017-05-04T10:21:39.314Z,36.37
2017-05-04T10:22:49.636Z,36.18
2017-05-04T10:23:59.933Z,36.19
2017-05-04T10:25:10.474Z,36.39
2017-05-04T10:26:20.762Z,36.58
2017-05-04T10:27:30.422Z,36.85
2017-05-04T10:28:40.085Z,36.87
2017-05-04T10:29:50.058Z,36.87
2017-05-04T10:31:00.286Z,36.87
2017-05-04T10:32:10.612Z,36.68
2017-05-04T10:33:20.900Z,36.97
2017-05-04T10:34:30.568Z,36.97
2017-05-04T10:35:40.856Z,36.97
2017-05-04T10:36:51.435Z,36.97
2017-05-04T10:38:01.742Z,37.06
2017-05-04T10:39:12.021Z,37.16
2017-05-04T10:40:22.006Z,37.06
2017-05-04T10:41:31.975Z,36.95
2017-05-04T10:42:42.221Z,37.06
2017-05-04T10:43:51.886Z,37.16
2017-05-04T10:45:02.222Z,37.45
2017-05-04T10:46:11.883Z,37.35
2017-05-04T10:47:21.861Z,37.16
2017-05-04T10:48:32.087Z,37.06
2017-05-04T10:49:42.398Z,37.26
2017-05-04T10:50:52.699Z,37.45
2017-05-04T10:52:02.973Z,37.64
2017-05-04T10:53:12.943Z,37.35
2017-05-04T10:54:23.480Z,37.26
2017-05-04T10:55:33.751Z,37.35
2017-05-04T10:56:44.074Z,37.45
2017-05-04T10:57:54.365Z,37.64
2017-05-04T10:59:04.021Z,37.26
2017-05-04T11:00:14.303Z,37.35
2017-05-04T11:01:24.298Z,37.45
2017-05-04T11:02:34.589Z,37.45
2017-05-04T11:03:44.915Z,37.26
2017-05-04T11:04:55.227Z,37.06
2017-05-04T11:06:05.777Z,37.16
2017-05-04T11:07:15.798Z,37.06
2017-05-04T11:08:26.084Z,37.06
2017-05-04T11:09:36.364Z,37.06
2017-05-04T11:10:46.329Z,37.06
2017-05-04T11:11:56.870Z,37.06
2017-05-04T11:13:06.845Z,37.14
2017-05-04T11:14:16.501Z,37.06
2017-05-04T11:15:26.476Z,37.06
2017-05-04T11:16:36.773Z,37.06
2017-05-04T11:17:47.306Z,37.26
2017-05-04T11:18:57.583Z,37.06
2017-05-04T11:20:07.864Z,37.26
2017-05-04T11:21:18.157Z,37.26
2017-05-04T11:22:27.806Z,37.35
2017-05-04T11:23:38.041Z,37.54
2017-05-04T11:24:48.330Z,37.26
2017-05-04T11:25:58.615Z,37.45
2017-05-04T11:27:08.905Z,37.45
2017-05-04T11:28:19.191Z,37.45
2017-05-04T11:29:29.721Z,37.45
2017-05-04T11:30:39.697Z,37.45
2017-05-04T11:31:49.983Z,37.35
2017-05-04T11:33:00.273Z,37.26
2017-05-04T11:34:10.248Z,37.06
2017-05-04T11:35:20.828Z,37.16
2017-05-04T11:36:31.122Z,37.64
2017-05-04T11:37:40.153Z,37.45
2017-05-04T11:38:50.149Z,37.45
2017-05-04T11:39:59.813Z,37.74
2017-05-04T11:41:10.044Z,37.45
2017-05-04T11:42:20.329Z,37.35
2017-05-04T11:43:30.315Z,37.26
2017-05-04T11:44:40.630Z,37.06
2017-05-04T11:45:50.938Z,37.16
2017-05-04T11:47:01.206Z,37.06
2017-05-04T11:48:11.502Z,37.06
2017-05-04T11:49:21.807Z,37.16
2017-05-04T11:50:32.088Z,37.06
2017-05-04T11:51:42.067Z,36.87
2017-05-04T11:52:52.655Z,36.97
2017-05-04T11:54:02.945Z,36.87
2017-05-04T11:55:13.239Z,36.87
2017-05-04T11:56:23.533Z,36.97
2017-05-04T11:57:33.501Z,36.97
2017-05-04T11:58:43.515Z,36.87
2017-05-04T11:59:53.811Z,36.77
2017-05-04T12:01:04.105Z,36.87
2017-05-04T12:02:14.399Z,37.06
2017-05-04T12:03:24.694Z,37.16
2017-05-04T12:04:34.943Z,37.06
2017-05-04T12:05:45.236Z,37.06
2017-05-04T12:06:55.524Z,36.87
2017-05-04T12:08:05.212Z,36.97
2017-05-04T12:09:15.514Z,37.16
2017-05-04T12:10:26.119Z,37.16
2017-05-04T12:11:36.397Z,37.06
2017-05-04T12:12:46.686Z,37.16
2017-05-04T12:13:57.005Z,37.06
2017-05-04T12:15:07.308Z,37.26
2017-05-04T12:16:17.843Z,36.97
2017-05-04T12:17:28.144Z,37.06
2017-05-04T12:18:38.431Z,36.97
2017-05-04T12:19:48.760Z,36.97
2017-05-04T12:20:59.039Z,37.06
2017-05-04T12:22:09.255Z,37.06
2017-05-04T12:23:19.550Z,37.06
2017-05-04T12:24:29.851Z,37.06
2017-05-04T12:25:39.831Z,37.06
2017-05-04T12:26:50.120Z,36.97
2017-05-04T12:28:00.352Z,37.26
2017-05-04T12:29:10.336Z,37.16
2017-05-04T12:30:20.621Z,37.06
2017-05-04T12:31:30.592Z,37.16
2017-05-04T12:32:40.586Z,37.16
2017-05-04T12:33:51.126Z,37.06
2017-05-04T12:35:01.413Z,36.97
2017-05-04T12:36:11.699Z,37.06
2017-05-04T12:37:21.674Z,37.06
2017-05-04T12:38:31.979Z,37.16
2017-05-04T12:39:42.538Z,37.16
2017-05-04T12:40:52.210Z,37.26
2017-05-04T12:42:02.185Z,37.06
2017-05-04T12:43:12.376Z,37.16
2017-05-04T12:44:22.370Z,37.16
2017-05-04T12:45:32.928Z,36.87
2017-05-04T12:46:42.903Z,36.87
2017-05-04T12:47:52.877Z,36.87
2017-05-04T12:49:02.853Z,36.87
2017-05-04T12:50:13.157Z,36.87
2017-05-04T12:51:23.126Z,36.87
2017-05-04T12:52:33.425Z,36.97
2017-05-04T12:53:43.408Z,37.06
2017-05-04T12:54:53.687Z,37.06
2017-05-04T12:56:03.664Z,37.06
2017-05-04T12:57:13.938Z,37.06
2017-05-04T12:58:24.221Z,36.87
2017-05-04T12:59:34.222Z,36.77
2017-05-04T13:00:44.511Z,36.87
2017-05-04T13:01:54.503Z,37.06
2017-05-04T13:03:05.064Z,36.77
2017-05-04T13:04:15.336Z,36.77
2017-05-04T13:05:25.625Z,36.87
2017-05-04T13:06:35.918Z,37.06
2017-05-04T13:07:46.210Z,36.68
2017-05-04T13:08:56.126Z,36.87
2017-05-04T13:10:06.436Z,36.87
2017-05-04T13:11:16.723Z,36.87
2017-05-04T13:12:27.019Z,36.97
2017-05-04T13:13:37.311Z,36.68
2017-05-04T13:14:47.858Z,36.58
2017-05-04T13:15:58.137Z,36.77
2017-05-04T13:17:08.430Z,36.58
2017-05-04T13:18:18.402Z,36.49
2017-05-04T13:19:28.674Z,36.39
2017-05-04T13:20:38.895Z,36.49
2017-05-04T13:21:49.184Z,36.77
2017-05-04T13:22:59.458Z,36.58
2017-05-04T13:24:09.428Z,36.49
2017-05-04T13:25:19.709Z,36.58
2017-05-04T13:26:30.278Z,36.58
2017-05-04T13:27:40.567Z,36.58
2017-05-04T13:28:50.849Z,36.49
2017-05-04T13:30:01.166Z,36.58
2017-05-04T13:31:11.476Z,36.49
2017-05-04T13:32:22.008Z,36.37
2017-05-04T13:33:32.290Z,36.19
2017-05-04T13:34:41.950Z,36.39
2017-05-04T13:35:52.239Z,36.49
2017-05-04T13:37:02.221Z,36.18
2017-05-04T13:38:12.450Z,36.49
2017-05-04T13:39:22.729Z,36.1
2017-05-04T13:40:33.011Z,36.1
2017-05-04T13:41:43.297Z,36.39
2017-05-04T13:42:53.578Z,36.27
2017-05-04T13:44:03.832Z,36.19
2017-05-04T13:45:14.108Z,36.37
2017-05-04T13:46:24.405Z,36.29
2017-05-04T13:47:34.707Z,36.18
2017-05-04T13:48:45.001Z,36.39
2017-05-04T13:49:55.543Z,36.29
2017-05-04T13:51:05.823Z,36.19
2017-05-04T13:52:16.123Z,36.19
2017-05-04T13:53:26.404Z,36.27
2017-05-04T13:54:36.691Z,36.37
2017-05-04T13:55:47.225Z,36.37
2017-05-04T13:56:57.511Z,36.39
2017-05-04T13:58:07.788Z,36.39
2017-05-04T13:59:17.780Z,36.37
2017-05-04T14:00:28.063Z,36.39
2017-05-04T14:01:38.673Z,36.37
2017-05-04T14:02:48.651Z,36.47
2017-05-04T14:03:58.940Z,36.37
2017-05-04T14:05:08.607Z,36.37
2017-05-04T14:06:18.578Z,36.47
2017-05-04T14:07:29.111Z,36.18
2017-05-04T14:08:39.415Z,36.29
2017-05-04T14:09:49.396Z,36.19
2017-05-04T14:10:59.694Z,36.37
2017-05-04T14:12:09.386Z,35.99
2017-05-04T14:13:19.600Z,36.18
2017-05-04T14:14:29.875Z,36.47
2017-05-04T14:15:39.841Z,36.47
2017-05-04T14:16:50.116Z,36.18
2017-05-04T14:18:00.087Z,36.37
2017-05-04T14:19:10.627Z,36.18
2017-05-04T14:20:20.924Z,36.27
2017-05-04T14:21:31.197Z,36.18
2017-05-04T14:22:41.485Z,36.37
2017-05-04T14:23:51.766Z,36.37
2017-05-04T14:25:02.295Z,36.47
2017-05-04T14:26:12.575Z,36.27
2017-05-04T14:27:22.556Z,35.99
2017-05-04T14:28:32.853Z,36.18
2017-05-04T14:29:43.159Z,36.37
2017-05-04T14:30:53.702Z,36.47
2017-05-04T14:32:03.670Z,36.37
2017-05-04T14:33:13.949Z,36.37
2017-05-04T14:34:23.621Z,36.18
2017-05-04T14:35:33.585Z,36.18
2017-05-04T14:36:43.805Z,36.37
2017-05-04T14:37:54.092Z,36.66
2017-05-04T14:39:04.087Z,36.56
2017-05-04T14:40:14.376Z,36.37
2017-05-04T14:41:24.655Z,36.27
2017-05-04T14:42:34.891Z,36.76
2017-05-04T14:43:45.171Z,36.27
2017-05-04T14:44:55.444Z,36.27
2017-05-04T14:46:05.726Z,36.56
2017-05-04T14:47:16.014Z,36.66
2017-05-04T14:48:26.547Z,36.56
2017-05-04T14:49:36.834Z,36.66
2017-05-04T14:50:46.812Z,36.66
2017-05-04T14:51:56.798Z,36.76
2017-05-04T14:53:06.759Z,36.66
2017-05-04T14:54:17.395Z,36.76
2017-05-04T14:55:27.668Z,36.76
2017-05-04T14:56:37.336Z,36.76
2017-05-04T14:57:46.696Z,36.76
2017-05-04T14:58:56.998Z,36.56
2017-05-04T15:00:06.896Z,36.76
2017-05-04T15:01:17.169Z,36.76
2017-05-04T15:02:27.469Z,36.76
2017-05-04T15:03:37.743Z,36.66
2017-05-04T15:04:48.031Z,36.76
2017-05-04T15:05:58.268Z,36.76